createdAt,value
2018-11-12T00:02:05.021Z,64.70
2018-11-12T00:04:36.644Z,64.70
2018-11-12T00:07:08.079Z,64.80
2018-11-12T00:09:39.594Z,64.90
2018-11-12T00:12:11.053Z,64.90
2018-11-12T00:14:42.490Z,65.60
2018-11-12T00:17:13.980Z,65.00
2018-11-12T00:19:45.439Z,65.10
2018-11-12T00:22:17.046Z,65.10
2018-11-12T00:24:48.550Z,65.00
2018-11-12T00:27:20.714Z,65.00
2018-11-12T00:29:52.260Z,65.00
2018-11-12T00:32:23.656Z,65.00
2018-11-12T00:34:55.144Z,65.00
2018-11-12T00:37:26.967Z,65.00
2018-11-12T00:39:58.441Z,65.00
2018-11-12T00:42:29.957Z,65.10
2018-11-12T00:45:01.413Z,65.20
2018-11-12T00:47:32.875Z,65.30
2018-11-12T00:50:04.495Z,65.20
2018-11-12T00:52:36.067Z,65.40
2018-11-12T00:55:09.001Z,65.10
2018-11-12T00:57:40.980Z,65.20
2018-11-12T01:00:15.406Z,65.10
2018-11-12T01:02:48.137Z,65.20
2018-11-12T01:05:20.112Z,65.10
2018-11-12T01:07:51.603Z,65.00
2018-11-12T01:10:23.106Z,65.10
2018-11-12T01:12:54.610Z,65.10
2018-11-12T01:15:32.674Z,65.00
2018-11-12T01:18:04.317Z,65.00
2018-11-12T01:20:35.877Z,65.00
2018-11-12T01:23:07.513Z,65.10
2018-11-12T01:25:39.018Z,65.10
2018-11-12T01:28:10.530Z,65.00
2018-11-12T01:30:42.048Z,65.00
2018-11-12T01:33:13.756Z,64.90
2018-11-12T01:35:45.288Z,65.00
2018-11-12T01:38:16.746Z,65.20
2018-11-12T01:40:48.271Z,65.10
2018-11-12T01:43:19.850Z,65.00
2018-11-12T01:45:51.286Z,64.90
2018-11-12T01:48:22.912Z,65.10
2018-11-12T01:50:54.413Z,65.00
2018-11-12T01:53:25.803Z,65.10
2018-11-12T01:55:57.306Z,65.10
2018-11-12T01:58:28.823Z,65.20
2018-11-12T02:01:00.242Z,65.10
2018-11-12T02:03:31.748Z,65.00
2018-11-12T02:06:03.168Z,65.00
2018-11-12T02:08:34.640Z,65.00
2018-11-12T02:11:06.090Z,65.00
2018-11-12T02:13:37.539Z,65.00
2018-11-12T02:16:10.111Z,65.00
2018-11-12T02:18:41.577Z,65.00
2018-11-12T02:21:12.952Z,65.10
2018-11-12T02:23:44.338Z,65.20
2018-11-12T02:26:15.783Z,65.20
2018-11-12T02:28:47.210Z,65.10
2018-11-12T02:31:18.702Z,65.20
2018-11-12T02:33:50.157Z,65.20
2018-11-12T02:36:21.538Z,65.30
2018-11-12T02:38:52.921Z,65.30
2018-11-12T02:41:24.393Z,65.40
2018-11-12T02:43:55.919Z,65.50
2018-11-12T02:46:27.321Z,65.40
2018-11-12T02:48:58.765Z,65.40
2018-11-12T02:51:30.220Z,65.40
2018-11-12T02:54:02.928Z,65.50
2018-11-12T02:56:35.206Z,65.50
2018-11-12T02:59:06.798Z,65.60
2018-11-12T03:01:38.256Z,65.60
2018-11-12T03:04:09.646Z,65.70
2018-11-12T03:06:41.074Z,65.70
2018-11-12T03:09:14.071Z,65.70
2018-11-12T03:11:45.467Z,65.70
2018-11-12T03:14:16.878Z,65.70
2018-11-12T03:16:48.389Z,65.70
2018-11-12T03:19:19.924Z,65.90
2018-11-12T03:21:51.396Z,65.90
2018-11-12T03:24:22.858Z,65.90
2018-11-12T03:26:54.308Z,65.90
2018-11-12T03:29:25.765Z,65.90
2018-11-12T03:31:57.370Z,65.90
2018-11-12T03:34:28.795Z,65.90
2018-11-12T03:37:00.315Z,65.90
2018-11-12T03:39:31.831Z,66.00
2018-11-12T03:42:03.251Z,66.00
2018-11-12T03:44:36.831Z,66.10
2018-11-12T03:47:08.269Z,66.10
2018-11-12T03:49:39.766Z,66.00
2018-11-12T03:52:11.179Z,66.00
2018-11-12T03:54:42.618Z,66.00
2018-11-12T03:57:13.976Z,66.00
2018-11-12T03:59:45.409Z,66.00
2018-11-12T04:02:16.815Z,66.00
2018-11-12T04:04:48.245Z,66.00
2018-11-12T04:07:19.603Z,66.10
2018-11-12T04:09:51.000Z,66.10
2018-11-12T04:12:22.464Z,66.10
2018-11-12T04:14:53.961Z,66.20
2018-11-12T04:17:25.423Z,66.10
2018-11-12T04:19:56.943Z,66.20
2018-11-12T04:22:28.377Z,66.20
2018-11-12T04:24:59.829Z,66.20
2018-11-12T04:27:31.296Z,66.20
2018-11-12T04:30:02.736Z,66.30
2018-11-12T04:32:34.236Z,66.40
2018-11-12T04:35:06.280Z,66.40
2018-11-12T04:37:37.836Z,66.50
2018-11-12T04:40:13.380Z,67.30
2018-11-12T04:42:45.038Z,66.50
2018-11-12T04:45:17.688Z,66.50
2018-11-12T04:47:49.869Z,66.50
2018-11-12T04:50:22.636Z,66.60
2018-11-12T04:52:54.426Z,67.30
2018-11-12T04:55:26.346Z,66.60
2018-11-12T04:57:57.680Z,66.60
2018-11-12T05:00:29.603Z,66.60
2018-11-12T05:03:01.121Z,66.60
2018-11-12T05:05:32.494Z,66.60
2018-11-12T05:08:03.985Z,66.80
2018-11-12T05:10:35.518Z,66.90
2018-11-12T05:13:07.198Z,66.80
2018-11-12T05:15:38.629Z,66.80
2018-11-12T05:18:10.118Z,66.80
2018-11-12T05:20:41.499Z,66.80
2018-11-12T05:23:12.964Z,66.80
2018-11-12T05:25:44.466Z,66.80
2018-11-12T05:28:15.913Z,66.80
2018-11-12T05:30:47.364Z,67.00
2018-11-12T05:33:18.854Z,67.00
2018-11-12T05:35:50.261Z,67.00
2018-11-12T05:38:21.755Z,67.00
2018-11-12T05:40:53.291Z,67.10
2018-11-12T05:43:24.791Z,67.00
2018-11-12T05:45:56.169Z,67.00
2018-11-12T05:48:27.743Z,67.00
2018-11-12T05:50:59.121Z,67.00
2018-11-12T05:53:30.543Z,67.00
2018-11-12T05:56:01.986Z,66.90
2018-11-12T05:58:33.395Z,67.00
2018-11-12T06:01:04.790Z,67.00
2018-11-12T06:03:36.248Z,67.00
2018-11-12T06:06:07.684Z,66.90
2018-11-12T06:08:39.214Z,67.00
2018-11-12T06:11:17.349Z,67.00
2018-11-12T06:13:48.729Z,66.90
2018-11-12T06:16:20.121Z,66.90
2018-11-12T06:18:51.601Z,67.00
2018-11-12T06:21:22.998Z,67.00
2018-11-12T06:23:54.387Z,66.90
2018-11-12T06:26:25.830Z,66.90
2018-11-12T06:28:57.241Z,67.00
2018-11-12T06:31:28.757Z,67.00
2018-11-12T06:34:00.230Z,67.00
2018-11-12T06:36:31.730Z,67.00
2018-11-12T06:39:03.129Z,67.00
2018-11-12T06:41:34.599Z,67.00
2018-11-12T06:44:07.337Z,66.90
2018-11-12T06:46:38.826Z,67.00
2018-11-12T06:49:10.383Z,66.90
2018-11-12T06:51:41.926Z,67.00
2018-11-12T06:54:13.466Z,67.00
2018-11-12T06:56:44.936Z,66.90
2018-11-12T06:59:16.327Z,66.80
2018-11-12T07:01:47.830Z,66.80
2018-11-12T07:04:19.258Z,66.70
2018-11-12T07:06:50.732Z,66.80
2018-11-12T07:09:22.256Z,66.70
2018-11-12T07:11:53.611Z,66.80
2018-11-12T07:14:30.453Z,66.80
2018-11-12T07:17:07.654Z,66.80
2018-11-12T07:20:12.455Z,66.90
2018-11-12T07:22:44.184Z,66.80
2018-11-12T07:25:16.786Z,67.00
2018-11-12T07:27:48.102Z,67.10
2018-11-12T07:30:21.861Z,67.10
2018-11-12T07:32:54.497Z,67.10
2018-11-12T07:35:26.176Z,67.20
2018-11-12T07:37:58.071Z,67.00
2018-11-12T07:40:29.534Z,67.20
2018-11-12T07:43:00.938Z,67.10
2018-11-12T07:45:32.425Z,67.10
2018-11-12T07:48:03.836Z,67.20
2018-11-12T07:50:35.280Z,67.10
2018-11-12T07:53:06.873Z,67.00
2018-11-12T07:55:38.340Z,67.00
2018-11-12T07:58:09.795Z,67.10
2018-11-12T08:00:41.228Z,67.00
2018-11-12T08:03:12.878Z,67.00
2018-11-12T08:05:44.313Z,67.00
2018-11-12T08:08:15.887Z,67.10
2018-11-12T08:10:47.466Z,67.00
2018-11-12T08:13:19.008Z,67.80
2018-11-12T08:15:50.473Z,67.00
2018-11-12T08:18:21.952Z,67.00
2018-11-12T08:20:53.468Z,67.00
2018-11-12T08:23:24.920Z,67.10
2018-11-12T08:25:56.363Z,67.10
2018-11-12T08:28:27.782Z,67.20
2018-11-12T08:30:59.428Z,67.20
2018-11-12T08:33:30.933Z,67.20
2018-11-12T08:36:02.462Z,67.20
2018-11-12T08:38:33.919Z,67.20
2018-11-12T08:41:05.512Z,67.20
2018-11-12T08:43:36.955Z,67.20
2018-11-12T08:46:08.491Z,67.10
2018-11-12T08:48:39.940Z,67.10
2018-11-12T08:51:11.385Z,67.40
2018-11-12T08:53:42.873Z,67.10
2018-11-12T08:56:14.370Z,67.10
2018-11-12T08:58:45.814Z,66.90
2018-11-12T09:01:17.373Z,66.90
2018-11-12T09:03:48.858Z,66.90
2018-11-12T09:06:20.383Z,66.90
2018-11-12T09:08:51.786Z,66.90
2018-11-12T09:11:23.273Z,66.90
2018-11-12T09:13:54.690Z,66.90
2018-11-12T09:16:26.184Z,66.80
2018-11-12T09:18:57.739Z,66.80
2018-11-12T09:21:29.216Z,66.70
2018-11-12T09:24:01.214Z,66.70
2018-11-12T09:26:32.718Z,66.60
2018-11-12T09:29:04.214Z,66.60
2018-11-12T09:31:35.662Z,66.50
2018-11-12T09:34:07.445Z,66.40
2018-11-12T09:36:38.995Z,66.40
2018-11-12T09:39:12.069Z,66.10
2018-11-12T09:41:43.550Z,66.10
2018-11-12T09:44:21.835Z,65.90
2018-11-12T09:46:53.194Z,65.50
2018-11-12T09:49:24.706Z,65.40
2018-11-12T09:51:56.257Z,65.20
2018-11-12T09:54:27.816Z,65.20
2018-11-12T09:56:59.091Z,65.20
2018-11-12T09:59:30.528Z,65.10
2018-11-12T10:02:02.511Z,65.00
2018-11-12T10:04:33.785Z,64.90
2018-11-12T10:07:07.162Z,64.80
2018-11-12T10:09:38.540Z,64.80
2018-11-12T10:12:11.366Z,64.70
2018-11-12T10:14:42.992Z,64.60
2018-11-12T10:17:15.361Z,64.50
2018-11-12T10:19:43.105Z,64.40
2018-11-12T10:22:14.586Z,64.40
2018-11-12T10:24:46.123Z,64.40
2018-11-12T10:27:17.628Z,64.30
2018-11-12T10:29:49.081Z,64.30
2018-11-12T10:32:20.634Z,65.00
2018-11-12T10:34:52.664Z,64.10
2018-11-12T10:37:24.179Z,63.90
2018-11-12T10:39:55.671Z,63.90
2018-11-12T10:42:27.221Z,63.90
2018-11-12T10:44:58.688Z,63.70
2018-11-12T10:47:30.219Z,63.50
2018-11-12T10:50:01.690Z,63.40
2018-11-12T10:52:33.211Z,63.30
2018-11-12T10:55:05.629Z,63.10
2018-11-12T10:57:36.456Z,63.10
2018-11-12T11:00:23.748Z,63.10
2018-11-12T11:03:02.339Z,62.80
2018-11-12T11:05:34.081Z,62.70
2018-11-12T11:08:05.586Z,62.60
2018-11-12T11:10:36.942Z,62.50
2018-11-12T11:13:08.781Z,62.30
2018-11-12T11:15:40.533Z,62.30
2018-11-12T11:18:11.879Z,62.10
2018-11-12T11:20:43.319Z,61.90
2018-11-12T11:23:14.779Z,61.70
2018-11-12T11:25:46.306Z,61.50
2018-11-12T11:28:18.489Z,61.40
2018-11-12T11:30:50.136Z,61.30
2018-11-12T11:33:21.532Z,61.10
2018-11-12T11:35:53.073Z,61.00
2018-11-12T11:38:24.522Z,60.80
2018-11-12T11:40:56.106Z,60.70
2018-11-12T11:43:27.513Z,60.60
2018-11-12T11:45:58.985Z,60.30
2018-11-12T11:48:30.423Z,60.00
2018-11-12T11:51:01.958Z,59.80
2018-11-12T11:53:33.338Z,59.60
2018-11-12T11:56:04.884Z,59.50
2018-11-12T11:58:36.303Z,59.30
2018-11-12T12:01:07.817Z,59.00
2018-11-12T12:03:39.301Z,59.00
2018-11-12T12:06:10.748Z,58.90
2018-11-12T12:08:42.166Z,58.80
2018-11-12T12:11:13.787Z,58.70
2018-11-12T12:13:45.219Z,58.60
2018-11-12T12:16:16.842Z,58.60
2018-11-12T12:18:48.372Z,58.60
2018-11-12T12:21:19.882Z,58.60
2018-11-12T12:23:51.344Z,58.60
2018-11-12T12:26:22.953Z,58.60
2018-11-12T12:28:54.492Z,58.70
2018-11-12T12:31:26.062Z,58.70
2018-11-12T12:33:57.596Z,58.60
2018-11-12T12:36:29.055Z,58.50
2018-11-12T12:39:00.586Z,58.50
2018-11-12T12:41:32.104Z,58.50
2018-11-12T12:44:03.683Z,58.40
2018-11-12T12:46:35.155Z,58.30
2018-11-12T12:49:06.716Z,58.10
2018-11-12T12:51:38.176Z,57.90
2018-11-12T12:54:09.611Z,57.80
2018-11-12T12:56:41.034Z,57.60
2018-11-12T12:59:12.712Z,57.60
2018-11-12T13:01:44.271Z,57.50
2018-11-12T13:04:15.937Z,57.20
2018-11-12T13:06:54.221Z,57.10
2018-11-12T13:09:25.738Z,57.00
2018-11-12T13:11:57.261Z,56.90
2018-11-12T13:14:28.858Z,56.70
2018-11-12T13:17:00.224Z,56.70
2018-11-12T13:19:31.776Z,56.60
2018-11-12T13:22:03.300Z,56.50
2018-11-12T13:24:34.790Z,56.50
2018-11-12T13:27:06.306Z,56.40
2018-11-12T13:29:37.745Z,56.40
2018-11-12T13:32:09.102Z,56.10
2018-11-12T13:34:40.642Z,55.70
2018-11-12T13:37:12.114Z,54.40
2018-11-12T13:39:43.521Z,52.60
2018-11-12T13:42:15.074Z,50.50
2018-11-12T13:44:46.548Z,49.60
2018-11-12T13:47:17.960Z,48.60
2018-11-12T13:49:49.406Z,48.40
2018-11-12T13:52:20.899Z,47.90
2018-11-12T13:54:52.389Z,46.60
2018-11-12T13:57:23.894Z,45.00
2018-11-12T13:59:55.291Z,43.70
2018-11-12T14:02:26.797Z,43.60
2018-11-12T14:04:58.315Z,44.60
2018-11-12T14:07:29.801Z,45.80
2018-11-12T14:10:01.215Z,46.80
2018-11-12T14:12:32.638Z,47.80
2018-11-12T14:15:04.251Z,48.70
2018-11-12T14:17:38.650Z,49.40
2018-11-12T14:20:10.131Z,50.00
2018-11-12T14:22:41.547Z,50.40
2018-11-12T14:25:14.739Z,50.70
2018-11-12T14:27:47.341Z,51.00
2018-11-12T14:30:20.895Z,51.50
2018-11-12T14:32:52.276Z,51.70
2018-11-12T14:35:23.817Z,51.90
2018-11-12T14:37:55.383Z,52.10
2018-11-12T14:40:26.904Z,52.30
2018-11-12T14:42:58.297Z,52.40
2018-11-12T14:45:29.786Z,52.60
2018-11-12T14:48:01.237Z,52.70
2018-11-12T14:50:32.612Z,52.90
2018-11-12T14:53:04.071Z,53.00
2018-11-12T14:55:35.562Z,52.90
2018-11-12T14:58:07.157Z,53.20
2018-11-12T15:00:38.614Z,53.40
2018-11-12T15:03:10.100Z,53.50
2018-11-12T15:05:41.606Z,53.50
2018-11-12T15:08:13.309Z,53.60
2018-11-12T15:10:44.820Z,53.70
2018-11-12T15:13:16.411Z,53.80
2018-11-12T15:15:47.894Z,53.90
2018-11-12T15:18:19.493Z,53.90
2018-11-12T15:20:51.062Z,54.00
2018-11-12T15:23:22.557Z,54.10
2018-11-12T15:25:53.959Z,54.20
2018-11-12T15:28:25.468Z,54.30
2018-11-12T15:30:56.990Z,54.40
2018-11-12T15:33:28.407Z,55.10
2018-11-12T15:36:00.262Z,54.50
2018-11-12T15:38:31.846Z,54.50
2018-11-12T15:41:03.241Z,54.50
2018-11-12T15:43:34.682Z,54.60
2018-11-12T15:46:06.643Z,54.70
2018-11-12T15:48:38.186Z,54.70
2018-11-12T15:51:09.760Z,54.70
2018-11-12T15:53:41.210Z,54.70
2018-11-12T15:56:12.729Z,54.80
2018-11-12T15:58:44.282Z,54.80
2018-11-12T16:01:15.847Z,54.80
2018-11-12T16:03:47.401Z,54.80
2018-11-12T16:06:18.939Z,54.90
2018-11-12T16:08:50.450Z,54.90
2018-11-12T16:11:21.947Z,54.90
2018-11-12T16:13:53.631Z,55.00
2018-11-12T16:16:25.043Z,54.90
2018-11-12T16:18:56.468Z,54.90
2018-11-12T16:21:27.916Z,54.90
2018-11-12T16:23:59.426Z,55.00
2018-11-12T16:26:31.139Z,55.00
2018-11-12T16:29:02.872Z,55.00
2018-11-12T16:31:34.533Z,55.00
2018-11-12T16:34:06.719Z,55.00
2018-11-12T16:36:38.335Z,55.00
2018-11-12T16:39:11.879Z,55.10
2018-11-12T16:41:43.914Z,55.20
2018-11-12T16:44:17.345Z,55.20
2018-11-12T16:46:48.891Z,55.20
2018-11-12T16:49:20.642Z,55.30
2018-11-12T16:51:52.194Z,55.30
2018-11-12T16:54:23.769Z,55.40
2018-11-12T16:56:55.317Z,55.40
2018-11-12T16:59:26.830Z,55.40
2018-11-12T17:01:59.363Z,55.50
2018-11-12T17:04:31.385Z,55.50
2018-11-12T17:07:02.994Z,55.60
2018-11-12T17:09:35.591Z,55.60
2018-11-12T17:12:07.443Z,55.70
2018-11-12T17:14:38.949Z,55.70
2018-11-12T17:17:10.419Z,55.70
2018-11-12T17:19:41.891Z,55.80
2018-11-12T17:22:13.574Z,55.80
2018-11-12T17:24:45.193Z,55.80
2018-11-12T17:27:16.840Z,55.90
2018-11-12T17:29:48.333Z,55.90
2018-11-12T17:32:20.190Z,55.90
2018-11-12T17:34:51.677Z,55.80
2018-11-12T17:37:23.234Z,55.80
2018-11-12T17:39:54.839Z,55.80
2018-11-12T17:42:26.444Z,55.80
2018-11-12T17:44:57.997Z,56.20
2018-11-12T17:47:29.717Z,55.80
2018-11-12T17:50:01.233Z,55.80
2018-11-12T17:52:33.203Z,55.80
2018-11-12T17:55:04.697Z,55.80
2018-11-12T17:57:36.503Z,55.80
2018-11-12T18:00:16.384Z,55.80
2018-11-12T18:02:48.353Z,55.70
2018-11-12T18:05:19.857Z,55.70
2018-11-12T18:07:51.427Z,55.70
2018-11-12T18:10:22.822Z,55.70
2018-11-12T18:12:54.427Z,55.80
2018-11-12T18:15:26.051Z,55.80
2018-11-12T18:17:57.657Z,55.70
2018-11-12T18:20:29.314Z,55.70
2018-11-12T18:23:00.927Z,55.80
2018-11-12T18:25:32.396Z,55.80
2018-11-12T18:28:04.352Z,55.80
2018-11-12T18:30:36.043Z,55.80
2018-11-12T18:33:07.975Z,55.70
2018-11-12T18:35:39.555Z,55.80
2018-11-12T18:38:11.177Z,55.80
2018-11-12T18:40:42.530Z,55.80
2018-11-12T18:43:13.951Z,55.80
2018-11-12T18:45:45.450Z,55.80
2018-11-12T18:48:17.133Z,55.80
2018-11-12T18:50:57.759Z,55.90
2018-11-12T18:53:29.307Z,55.90
2018-11-12T18:56:00.780Z,55.80
2018-11-12T18:58:32.485Z,55.80
2018-11-12T19:01:04.143Z,55.90
2018-11-12T19:03:35.718Z,55.80
2018-11-12T19:06:07.611Z,55.80
2018-11-12T19:08:39.271Z,55.80
2018-11-12T19:11:11.300Z,55.80
2018-11-12T19:13:42.887Z,55.80
2018-11-12T19:16:14.428Z,55.90
2018-11-12T19:18:45.954Z,55.80
2018-11-12T19:21:17.715Z,55.90
2018-11-12T19:23:49.562Z,56.00
2018-11-12T19:26:21.417Z,56.70
2018-11-12T19:28:53.377Z,56.00
2018-11-12T19:31:25.028Z,56.00
2018-11-12T19:33:56.811Z,55.90
2018-11-12T19:36:28.784Z,56.00
2018-11-12T19:39:00.302Z,56.00
2018-11-12T19:41:44.659Z,56.00
2018-11-12T19:44:20.082Z,56.00
2018-11-12T19:46:51.607Z,55.90
2018-11-12T19:49:23.216Z,55.90
2018-11-12T19:51:54.736Z,55.90
2018-11-12T19:54:26.417Z,55.90
2018-11-12T19:56:58.110Z,55.90
2018-11-12T19:59:29.610Z,56.20
2018-11-12T20:02:13.073Z,55.90
2018-11-12T20:04:44.700Z,55.90
2018-11-12T20:07:16.168Z,56.50
2018-11-12T20:09:47.641Z,55.90
2018-11-12T20:12:19.195Z,56.00
2018-11-12T20:14:51.169Z,56.00
2018-11-12T20:17:22.766Z,56.10
2018-11-12T20:19:54.355Z,56.10
2018-11-12T20:22:25.980Z,56.10
2018-11-12T20:24:57.784Z,56.70
2018-11-12T20:27:29.229Z,56.30
2018-11-12T20:30:00.764Z,56.30
2018-11-12T20:32:32.288Z,56.30
2018-11-12T20:35:03.862Z,56.40
2018-11-12T20:37:35.451Z,56.50
2018-11-12T20:40:07.958Z,56.50
2018-11-12T20:42:39.552Z,56.50
2018-11-12T20:45:13.084Z,56.50
2018-11-12T20:47:45.654Z,56.50
2018-11-12T20:50:17.577Z,56.60
2018-11-12T20:52:49.143Z,56.50
2018-11-12T20:55:20.732Z,56.50
2018-11-12T20:57:52.212Z,56.50
2018-11-12T21:00:25.426Z,56.40
2018-11-12T21:02:57.227Z,56.50
2018-11-12T21:05:30.005Z,56.50
2018-11-12T21:08:01.598Z,56.50
2018-11-12T21:10:33.068Z,56.50
2018-11-12T21:13:04.675Z,56.50
2018-11-12T21:15:36.386Z,56.40
2018-11-12T21:18:07.933Z,56.40
2018-11-12T21:20:39.380Z,56.40
2018-11-12T21:23:10.946Z,56.40
2018-11-12T21:25:42.376Z,56.40
2018-11-12T21:28:13.910Z,56.40
2018-11-12T21:30:46.915Z,56.40
2018-11-12T21:33:18.543Z,56.40
2018-11-12T21:35:50.069Z,56.40
2018-11-12T21:38:21.638Z,56.00
2018-11-12T21:40:53.351Z,56.50
2018-11-12T21:43:24.987Z,56.50
2018-11-12T21:45:56.338Z,56.70
2018-11-12T21:48:27.762Z,56.80
2018-11-12T21:50:59.334Z,56.90
2018-11-12T21:53:30.848Z,56.80
2018-11-12T21:56:02.356Z,56.90
2018-11-12T21:58:34.046Z,56.90
2018-11-12T22:01:05.802Z,56.90
2018-11-12T22:03:37.315Z,57.00
2018-11-12T22:06:08.961Z,57.20
2018-11-12T22:08:40.647Z,57.10
2018-11-12T22:11:12.091Z,57.20
2018-11-12T22:13:43.619Z,57.30
2018-11-12T22:16:15.266Z,57.30
2018-11-12T22:18:46.975Z,57.30
2018-11-12T22:21:18.562Z,57.40
2018-11-12T22:23:50.145Z,57.50
2018-11-12T22:26:21.743Z,57.50
2018-11-12T22:28:53.155Z,57.60
2018-11-12T22:31:24.580Z,57.70
2018-11-12T22:33:56.054Z,57.90
2018-11-12T22:36:27.498Z,58.10
2018-11-12T22:38:58.966Z,58.20
2018-11-12T22:41:30.484Z,58.50
2018-11-12T22:44:02.023Z,58.70
2018-11-12T22:46:33.655Z,58.80
2018-11-12T22:49:05.460Z,58.90
2018-11-12T22:51:36.968Z,59.10
2018-11-12T22:54:08.591Z,59.20
2018-11-12T22:56:40.030Z,59.30
2018-11-12T22:59:11.554Z,59.40
2018-11-12T23:01:43.019Z,59.40
2018-11-12T23:04:14.795Z,59.50
2018-11-12T23:06:46.336Z,59.60
2018-11-12T23:09:18.858Z,59.60
2018-11-12T23:11:50.387Z,59.70
2018-11-12T23:14:21.951Z,59.80
2018-11-12T23:16:53.523Z,59.90
2018-11-12T23:19:24.942Z,60.00
2018-11-12T23:21:56.470Z,60.20
2018-11-12T23:24:28.052Z,60.30
2018-11-12T23:26:59.693Z,60.50
2018-11-12T23:29:31.181Z,60.80
2018-11-12T23:32:02.656Z,61.10
2018-11-12T23:34:34.173Z,61.20
2018-11-12T23:37:06.077Z,61.50
2018-11-12T23:39:37.586Z,61.50
2018-11-12T23:42:09.166Z,61.60
2018-11-12T23:44:40.729Z,61.90
2018-11-12T23:47:12.352Z,62.10
2018-11-12T23:49:43.856Z,62.10
2018-11-12T23:52:15.354Z,62.10
2018-11-12T23:54:46.857Z,62.10
2018-11-12T23:57:18.410Z,62.20
2018-11-12T23:59:49.988Z,62.90
